createdAt,value
2023-03-11T00:13:11.714Z,1.50
2023-03-11T00:28:13.107Z,1.93
2023-03-11T00:43:14.493Z,1.67
2023-03-11T00:58:15.884Z,1.40
2023-03-11T01:13:17.273Z,1.50
2023-03-11T01:28:18.661Z,1.30
2023-03-11T01:43:20.088Z,1.53
2023-03-11T01:58:21.468Z,1.30
2023-03-11T02:13:22.870Z,1.53
2023-03-11T02:28:24.380Z,1.33
2023-03-11T02:43:25.740Z,1.20
2023-03-11T02:58:27.105Z,1.20
2023-03-11T03:13:28.488Z,1.10
2023-03-11T03:28:29.884Z,1.40
2023-03-11T03:43:31.286Z,1.27
2023-03-11T03:58:32.698Z,1.33
2023-03-11T04:13:34.082Z,1.00
2023-03-11T04:28:35.496Z,1.20
2023-03-11T04:43:36.881Z,1.00
2023-03-11T04:58:38.371Z,0.93
2023-03-11T05:13:39.744Z,1.33
2023-03-11T05:28:41.088Z,1.20
2023-03-11T05:43:42.472Z,1.50
2023-03-11T05:58:43.853Z,1.37
2023-03-11T06:13:45.270Z,1.93
2023-03-11T06:28:46.679Z,1.93
2023-03-11T06:43:48.089Z,4.10
2023-03-11T06:58:49.518Z,4.03
2023-03-11T07:13:50.913Z,6.37
2023-03-11T07:28:52.297Z,1.70
2023-03-11T07:43:53.723Z,2.50
2023-03-11T07:58:55.141Z,2.30
2023-03-11T08:13:56.690Z,2.17
2023-03-11T08:28:58.122Z,2.90
2023-03-11T08:43:59.598Z,3.07
2023-03-11T08:59:01.178Z,3.27
2023-03-11T09:14:02.583Z,2.20
2023-03-11T09:29:03.958Z,0.90
2023-03-11T09:44:05.304Z,3.03
2023-03-11T09:59:06.820Z,1.97
2023-03-11T10:14:08.216Z,4.10
2023-03-11T10:29:09.655Z,6.97
2023-03-11T10:44:11.022Z,6.37
2023-03-11T10:59:15.218Z,7.20
2023-03-11T11:14:16.618Z,5.67
2023-03-11T11:29:18.014Z,3.90
2023-03-11T11:44:19.539Z,4.13
2023-03-11T11:59:20.901Z,3.63
2023-03-11T12:14:22.261Z,7.63
2023-03-11T12:29:23.680Z,6.07
2023-03-11T12:44:25.144Z,3.33
2023-03-11T12:59:26.529Z,3.47
2023-03-11T13:14:27.928Z,4.60
2023-03-11T13:29:29.332Z,13.23
2023-03-11T13:44:30.840Z,10.87
2023-03-11T13:59:32.205Z,11.37
2023-03-11T14:14:33.596Z,7.40
2023-03-11T14:29:34.989Z,5.93
2023-03-11T14:44:36.395Z,8.33
2023-03-11T14:59:37.809Z,5.87
2023-03-11T15:14:39.213Z,4.37
2023-03-11T15:29:40.685Z,4.97
2023-03-11T15:44:42.045Z,5.43
2023-03-11T15:59:43.415Z,5.13
2023-03-11T16:14:44.868Z,4.57
2023-03-11T16:29:46.396Z,4.30
2023-03-11T16:44:47.782Z,3.70
2023-03-11T16:59:49.228Z,5.13
2023-03-11T17:14:50.694Z,4.97
2023-03-11T17:29:52.205Z,3.63
2023-03-11T17:44:53.700Z,2.87
2023-03-11T17:59:55.057Z,3.07
2023-03-11T18:14:56.397Z,5.77
2023-03-11T18:29:57.826Z,9.70
2023-03-11T18:44:59.228Z,7.03
2023-03-11T19:00:00.621Z,3.30
2023-03-11T19:15:02.135Z,5.37
2023-03-11T19:30:03.636Z,4.60
2023-03-11T19:45:05.053Z,5.07
2023-03-11T20:00:06.488Z,6.03
2023-03-11T20:15:07.938Z,3.67
2023-03-11T20:30:09.462Z,3.27
2023-03-11T20:45:10.977Z,2.60
2023-03-11T21:00:12.492Z,4.80
2023-03-11T21:15:14.056Z,4.97
2023-03-11T21:30:15.503Z,4.20
2023-03-11T21:45:17.060Z,4.07
2023-03-11T22:00:18.612Z,3.10
2023-03-11T22:15:20.177Z,4.20
2023-03-11T22:30:21.527Z,2.63
2023-03-11T22:45:22.915Z,2.23
2023-03-11T23:00:24.312Z,3.97
2023-03-11T23:15:25.708Z,2.43
2023-03-11T23:30:27.116Z,3.03
2023-03-11T23:45:28.525Z,2.93
